EZY176 EGGW-EGPH
Flight info
| Callsign | EZY176 |
|---|---|
| Flight time | 0h 55m |
| Altitude | 32000 |
| Route | OLNEY T420 TNT UN57 POL UN601 RIBEL DCT INPIP |
| Aircraft | A319/M-SDE3FGHIRWY/LB1 |
Departure
| Time | 2026-04-23 08:09 |
|---|---|
| Airport | London Luton Airport (EGGW) |
Arrival
| Time | 2026-04-23 09:04 |
|---|---|
| Airport | Edinburgh Airport (EGPH) |
| Time | Latitude | Longitude | Altitude | Speed | Heading |
|---|---|---|---|---|---|
| 2026-04-23 07:47 | 51.88094 | -0.37331 | 508 ft | 0 kts | 341° |
| 2026-04-23 07:53 | 51.88093 | -0.37331 | 508 ft | 0 kts | 341° |
| 2026-04-23 07:59 | 51.88083 | -0.37325 | 508 ft | 2 kts | 341° |
| 2026-04-23 07:59 | 51.88067 | -0.37317 | 508 ft | 2 kts | 342° |
| 2026-04-23 08:00 | 51.88051 | -0.37310 | 508 ft | 2 kts | 7° |
| 2026-04-23 08:00 | 51.88035 | -0.37317 | 508 ft | 2 kts | 27° |
| 2026-04-23 08:00 | 51.88021 | -0.37331 | 508 ft | 2 kts | 49° |
| 2026-04-23 08:00 | 51.88015 | -0.37344 | 508 ft | 1 kts | 66° |
| 2026-04-23 08:01 | 51.88014 | -0.37346 | 508 ft | 0 kts | 69° |
| 2026-04-23 08:02 | 51.88015 | -0.37343 | 508 ft | 1 kts | 69° |
| 2026-04-23 08:03 | 51.88018 | -0.37326 | 508 ft | 2 kts | 71° |
| 2026-04-23 08:03 | 51.88026 | -0.37291 | 508 ft | 4 kts | 71° |
| 2026-04-23 08:03 | 51.88037 | -0.37240 | 508 ft | 6 kts | 71° |
| 2026-04-23 08:03 | 51.88041 | -0.37172 | 508 ft | 7 kts | 103° |
| 2026-04-23 08:04 | 51.88003 | -0.37124 | 508 ft | 8 kts | 160° |
| 2026-04-23 08:04 | 51.87950 | -0.37096 | 509 ft | 8 kts | 162° |
| 2026-04-23 08:04 | 51.87893 | -0.37065 | 509 ft | 9 kts | 161° |
| 2026-04-23 08:04 | 51.87845 | -0.37040 | 512 ft | 5 kts | 162° |
| 2026-04-23 08:05 | 51.87817 | -0.37025 | 514 ft | 4 kts | 162° |
| 2026-04-23 08:05 | 51.87789 | -0.37011 | 516 ft | 4 kts | 161° |
| 2026-04-23 08:05 | 51.87762 | -0.36996 | 517 ft | 4 kts | 162° |
| 2026-04-23 08:05 | 51.87736 | -0.36982 | 520 ft | 3 kts | 162° |
| 2026-04-23 08:06 | 51.87707 | -0.36967 | 522 ft | 7 kts | 161° |
| 2026-04-23 08:06 | 51.87648 | -0.36958 | 524 ft | 11 kts | 199° |
| 2026-04-23 08:06 | 51.87603 | -0.37124 | 522 ft | 19 kts | 254° |
| 2026-04-23 08:06 | 51.87578 | -0.37328 | 522 ft | 18 kts | 276° |
| 2026-04-23 08:07 | 51.87523 | -0.37488 | 521 ft | 18 kts | 223° |
| 2026-04-23 08:07 | 51.87481 | -0.37673 | 523 ft | 17 kts | 254° |
| 2026-04-23 08:07 | 51.87447 | -0.37867 | 523 ft | 18 kts | 254° |
| 2026-04-23 08:07 | 51.87391 | -0.38041 | 523 ft | 18 kts | 216° |
| 2026-04-23 08:08 | 51.87278 | -0.38113 | 523 ft | 14 kts | 169° |
| 2026-04-23 08:08 | 51.87266 | -0.37977 | 524 ft | 16 kts | 74° |
| 2026-04-23 08:08 | 51.87343 | -0.37539 | 521 ft | 77 kts | 75° |
| 2026-04-23 08:08 | 51.87551 | -0.36343 | 523 ft | 142 kts | 73° |
| 2026-04-23 08:09 | 51.87821 | -0.34771 | 1164 ft | 141 kts | 75° |
| 2026-04-23 08:09 | 51.88063 | -0.33241 | 1947 ft | 142 kts | 78° |
| 2026-04-23 08:09 | 51.88346 | -0.31554 | 2298 ft | 168 kts | 78° |
| 2026-04-23 08:09 | 51.88651 | -0.29614 | 2714 ft | 187 kts | 78° |
| 2026-04-23 08:10 | 51.89026 | -0.27466 | 3108 ft | 212 kts | 68° |
| 2026-04-23 08:10 | 51.90088 | -0.25618 | 3579 ft | 245 kts | 33° |
| 2026-04-23 08:10 | 51.93664 | -0.26011 | 5071 ft | 287 kts | 328° |
| 2026-04-23 08:11 | 51.94982 | -0.28442 | 5986 ft | 294 kts | 296° |
| 2026-04-23 08:11 | 51.95396 | -0.31679 | 6837 ft | 297 kts | 264° |
| 2026-04-23 08:11 | 51.94858 | -0.34837 | 7985 ft | 282 kts | 246° |
| 2026-04-23 08:11 | 51.94293 | -0.37820 | 9177 ft | 282 kts | 258° |
| 2026-04-23 08:12 | 51.94363 | -0.41048 | 9901 ft | 295 kts | 286° |
| 2026-04-23 08:12 | 51.95430 | -0.43924 | 10564 ft | 307 kts | 318° |
| 2026-04-23 08:12 | 51.96752 | -0.45537 | 10926 ft | 320 kts | 327° |
| 2026-04-23 08:12 | 51.97486 | -0.46359 | 11021 ft | 331 kts | 325° |
| 2026-04-23 08:13 | 51.99341 | -0.48706 | 11572 ft | 343 kts | 321° |
| 2026-04-23 08:13 | 52.01154 | -0.51254 | 12376 ft | 347 kts | 319° |
| 2026-04-23 08:13 | 52.02957 | -0.53899 | 13154 ft | 351 kts | 319° |
| 2026-04-23 08:13 | 52.04776 | -0.56591 | 13935 ft | 356 kts | 318° |
| 2026-04-23 08:14 | 52.06618 | -0.59295 | 14692 ft | 358 kts | 319° |
| 2026-04-23 08:14 | 52.08490 | -0.62006 | 15357 ft | 363 kts | 320° |
| 2026-04-23 08:14 | 52.10388 | -0.64724 | 16104 ft | 364 kts | 320° |
| 2026-04-23 08:14 | 52.12305 | -0.67452 | 16807 ft | 367 kts | 320° |
| 2026-04-23 08:15 | 52.14225 | -0.70190 | 17550 ft | 369 kts | 320° |
| 2026-04-23 08:15 | 52.16160 | -0.72951 | 18277 ft | 371 kts | 320° |
| 2026-04-23 08:15 | 52.18103 | -0.75730 | 18973 ft | 373 kts | 320° |
| 2026-04-23 08:15 | 52.20057 | -0.78525 | 19605 ft | 375 kts | 320° |
| 2026-04-23 08:16 | 52.22019 | -0.81333 | 20250 ft | 376 kts | 320° |
| 2026-04-23 08:16 | 52.23993 | -0.84150 | 20881 ft | 378 kts | 322° |
| 2026-04-23 08:16 | 52.26133 | -0.86637 | 21513 ft | 378 kts | 330° |
| 2026-04-23 08:16 | 52.28385 | -0.88871 | 22142 ft | 380 kts | 330° |
| 2026-04-23 08:17 | 52.30656 | -0.91112 | 22743 ft | 383 kts | 330° |
| 2026-04-23 08:17 | 52.32941 | -0.93372 | 23342 ft | 386 kts | 330° |
| 2026-04-23 08:17 | 52.35242 | -0.95659 | 23948 ft | 388 kts | 330° |
| 2026-04-23 08:17 | 52.37552 | -0.97967 | 24462 ft | 390 kts | 330° |
| 2026-04-23 08:18 | 52.39873 | -1.00292 | 24963 ft | 391 kts | 330° |
| 2026-04-23 08:18 | 52.42155 | -1.02584 | 25423 ft | 391 kts | 330° |
| 2026-04-23 08:18 | 52.44477 | -1.04921 | 25886 ft | 392 kts | 330° |
| 2026-04-23 08:18 | 52.46806 | -1.07263 | 26362 ft | 394 kts | 330° |
| 2026-04-23 08:19 | 52.49147 | -1.09613 | 26819 ft | 396 kts | 330° |
| 2026-04-23 08:19 | 52.51500 | -1.11978 | 27266 ft | 398 kts | 330° |
| 2026-04-23 08:19 | 52.53864 | -1.14356 | 27692 ft | 400 kts | 330° |
| 2026-04-23 08:19 | 52.56244 | -1.16750 | 28127 ft | 402 kts | 330° |
| 2026-04-23 08:20 | 52.58664 | -1.19184 | 28578 ft | 404 kts | 330° |
| 2026-04-23 08:20 | 52.61064 | -1.21599 | 29014 ft | 406 kts | 330° |
| 2026-04-23 08:20 | 52.63446 | -1.24006 | 29426 ft | 408 kts | 330° |
| 2026-04-23 08:20 | 52.65863 | -1.26457 | 29846 ft | 409 kts | 330° |
| 2026-04-23 08:21 | 52.68300 | -1.28929 | 30260 ft | 411 kts | 330° |
| 2026-04-23 08:21 | 52.70742 | -1.31404 | 30631 ft | 413 kts | 330° |
| 2026-04-23 08:21 | 52.73197 | -1.33902 | 30965 ft | 415 kts | 330° |
| 2026-04-23 08:21 | 52.75660 | -1.36418 | 31438 ft | 417 kts | 330° |
| 2026-04-23 08:22 | 52.78137 | -1.38945 | 31733 ft | 420 kts | 330° |
| 2026-04-23 08:22 | 52.80628 | -1.41487 | 32045 ft | 422 kts | 330° |
| 2026-04-23 08:22 | 52.83129 | -1.44041 | 32386 ft | 423 kts | 330° |
| 2026-04-23 08:22 | 52.85625 | -1.46598 | 32519 ft | 420 kts | 330° |
| 2026-04-23 08:23 | 52.88057 | -1.49098 | 32545 ft | 403 kts | 330° |
| 2026-04-23 08:23 | 52.90408 | -1.51518 | 32541 ft | 394 kts | 330° |
| 2026-04-23 08:23 | 52.95056 | -1.56302 | 32532 ft | 393 kts | 329° |
| 2026-04-23 08:24 | 52.99695 | -1.61093 | 32534 ft | 393 kts | 329° |
| 2026-04-23 08:24 | 53.04342 | -1.65882 | 32529 ft | 393 kts | 331° |
| 2026-04-23 08:25 | 53.09359 | -1.69433 | 32518 ft | 392 kts | 340° |
| 2026-04-23 08:25 | 53.14467 | -1.72593 | 32531 ft | 392 kts | 340° |
| 2026-04-23 08:26 | 53.19575 | -1.75764 | 32521 ft | 392 kts | 340° |
| 2026-04-23 08:26 | 53.24681 | -1.78937 | 32530 ft | 391 kts | 340° |
| 2026-04-23 08:27 | 53.29785 | -1.82134 | 32525 ft | 392 kts | 340° |
| 2026-04-23 08:27 | 53.34851 | -1.85311 | 32519 ft | 392 kts | 340° |
| 2026-04-23 08:28 | 53.39963 | -1.88511 | 32504 ft | 392 kts | 340° |
| 2026-04-23 08:28 | 53.45071 | -1.91718 | 32525 ft | 392 kts | 340° |
| 2026-04-23 08:29 | 53.50176 | -1.94945 | 32524 ft | 392 kts | 340° |
| 2026-04-23 08:29 | 53.55283 | -1.98177 | 32529 ft | 392 kts | 340° |
| 2026-04-23 08:30 | 53.60387 | -2.01412 | 32531 ft | 392 kts | 340° |
| 2026-04-23 08:30 | 53.65494 | -2.04660 | 32528 ft | 392 kts | 340° |
| 2026-04-23 08:31 | 53.70597 | -2.07916 | 32526 ft | 392 kts | 340° |
| 2026-04-23 08:31 | 53.75707 | -2.11189 | 32500 ft | 393 kts | 339° |
| 2026-04-23 08:32 | 53.80799 | -2.14629 | 32507 ft | 395 kts | 338° |
| 2026-04-23 08:32 | 53.85887 | -2.18155 | 32518 ft | 396 kts | 338° |
| 2026-04-23 08:33 | 53.90994 | -2.21676 | 32516 ft | 396 kts | 338° |
| 2026-04-23 08:33 | 53.96110 | -2.25172 | 32530 ft | 397 kts | 338° |
| 2026-04-23 08:34 | 54.01226 | -2.28685 | 32530 ft | 397 kts | 338° |
| 2026-04-23 08:34 | 54.06348 | -2.32224 | 32523 ft | 398 kts | 338° |
| 2026-04-23 08:35 | 54.11474 | -2.35769 | 32530 ft | 398 kts | 338° |
| 2026-04-23 08:35 | 54.16604 | -2.39311 | 32532 ft | 398 kts | 338° |
| 2026-04-23 08:36 | 54.21731 | -2.42884 | 32536 ft | 398 kts | 338° |
| 2026-04-23 08:36 | 54.26855 | -2.46480 | 32526 ft | 398 kts | 338° |
| 2026-04-23 08:37 | 54.31992 | -2.50076 | 32527 ft | 399 kts | 338° |
| 2026-04-23 08:37 | 54.37135 | -2.53670 | 32526 ft | 399 kts | 338° |
| 2026-04-23 08:38 | 54.42276 | -2.57268 | 32517 ft | 399 kts | 338° |
| 2026-04-23 08:38 | 54.47385 | -2.60864 | 32515 ft | 399 kts | 338° |
| 2026-04-23 08:39 | 54.52543 | -2.64513 | 32315 ft | 402 kts | 338° |
| 2026-04-23 08:39 | 54.55129 | -2.66345 | 32058 ft | 401 kts | 338° |
| 2026-04-23 08:39 | 54.57704 | -2.68172 | 31802 ft | 398 kts | 338° |
| 2026-04-23 08:40 | 54.60245 | -2.69978 | 31384 ft | 393 kts | 337° |
| 2026-04-23 08:40 | 54.62769 | -2.71776 | 30931 ft | 390 kts | 337° |
| 2026-04-23 08:40 | 54.65268 | -2.73559 | 30433 ft | 388 kts | 338° |
| 2026-04-23 08:40 | 54.67750 | -2.75331 | 29978 ft | 384 kts | 337° |
| 2026-04-23 08:41 | 54.70209 | -2.77084 | 29527 ft | 380 kts | 337° |
| 2026-04-23 08:41 | 54.72640 | -2.78818 | 29101 ft | 376 kts | 337° |
| 2026-04-23 08:41 | 54.75050 | -2.80545 | 28680 ft | 373 kts | 337° |
| 2026-04-23 08:41 | 54.77406 | -2.82233 | 28265 ft | 370 kts | 337° |
| 2026-04-23 08:42 | 54.79775 | -2.83929 | 27863 ft | 367 kts | 337° |
| 2026-04-23 08:42 | 54.82121 | -2.85613 | 27464 ft | 364 kts | 337° |
| 2026-04-23 08:42 | 54.84448 | -2.87290 | 27070 ft | 360 kts | 337° |
| 2026-04-23 08:42 | 54.86008 | -2.88416 | 26808 ft | 358 kts | 337° |
| 2026-04-23 08:43 | 54.89037 | -2.90600 | 26240 ft | 357 kts | 337° |
| 2026-04-23 08:43 | 54.91343 | -2.92264 | 25723 ft | 360 kts | 337° |
| 2026-04-23 08:43 | 54.93660 | -2.93938 | 25221 ft | 360 kts | 337° |
| 2026-04-23 08:43 | 54.95222 | -2.95069 | 24881 ft | 360 kts | 337° |
| 2026-04-23 08:44 | 54.97539 | -2.96752 | 24382 ft | 361 kts | 336° |
| 2026-04-23 08:44 | 54.99859 | -2.98439 | 23830 ft | 362 kts | 336° |
| 2026-04-23 08:44 | 55.02181 | -3.00129 | 23309 ft | 361 kts | 337° |
| 2026-04-23 08:44 | 55.04498 | -3.01812 | 22811 ft | 362 kts | 336° |
| 2026-04-23 08:45 | 55.06790 | -3.03475 | 22311 ft | 361 kts | 336° |
| 2026-04-23 08:45 | 55.09134 | -3.05184 | 21801 ft | 360 kts | 335° |
| 2026-04-23 08:45 | 55.11415 | -3.06856 | 21301 ft | 360 kts | 335° |
| 2026-04-23 08:45 | 55.13726 | -3.08548 | 20809 ft | 360 kts | 336° |
| 2026-04-23 08:46 | 55.16041 | -3.10241 | 20258 ft | 361 kts | 336° |
| 2026-04-23 08:46 | 55.18365 | -3.11940 | 19647 ft | 364 kts | 336° |
| 2026-04-23 08:46 | 55.20691 | -3.13640 | 19411 ft | 356 kts | 335° |
| 2026-04-23 08:46 | 55.22940 | -3.15288 | 19261 ft | 346 kts | 335° |
| 2026-04-23 08:47 | 55.25138 | -3.16902 | 19011 ft | 339 kts | 335° |
| 2026-04-23 08:47 | 55.27304 | -3.18494 | 18658 ft | 336 kts | 335° |
| 2026-04-23 08:47 | 55.29520 | -3.19745 | 18243 ft | 336 kts | 348° |
| 2026-04-23 08:47 | 55.31845 | -3.20079 | 17834 ft | 336 kts | 1° |
| 2026-04-23 08:48 | 55.34168 | -3.19736 | 17444 ft | 334 kts | 4° |
| 2026-04-23 08:48 | 55.36480 | -3.19371 | 17065 ft | 333 kts | 4° |
| 2026-04-23 08:48 | 55.38779 | -3.19015 | 16683 ft | 331 kts | 4° |
| 2026-04-23 08:48 | 55.41070 | -3.18663 | 16324 ft | 329 kts | 4° |
| 2026-04-23 08:49 | 55.43346 | -3.18318 | 15968 ft | 328 kts | 4° |
| 2026-04-23 08:49 | 55.45615 | -3.17971 | 15615 ft | 326 kts | 5° |
| 2026-04-23 08:49 | 55.47844 | -3.17624 | 15275 ft | 325 kts | 5° |
| 2026-04-23 08:49 | 55.50093 | -3.17272 | 14943 ft | 323 kts | 4° |
| 2026-04-23 08:50 | 55.52326 | -3.16922 | 14617 ft | 321 kts | 5° |
| 2026-04-23 08:50 | 55.54547 | -3.16570 | 14279 ft | 319 kts | 5° |
| 2026-04-23 08:50 | 55.56757 | -3.16221 | 13900 ft | 318 kts | 5° |
| 2026-04-23 08:50 | 55.58955 | -3.15877 | 13529 ft | 316 kts | 5° |
| 2026-04-23 08:51 | 55.61144 | -3.15533 | 13161 ft | 315 kts | 5° |
| 2026-04-23 08:51 | 55.63317 | -3.15186 | 12792 ft | 313 kts | 5° |
| 2026-04-23 08:51 | 55.65483 | -3.14949 | 12511 ft | 309 kts | 356° |
| 2026-04-23 08:51 | 55.67492 | -3.15960 | 12392 ft | 297 kts | 329° |
| 2026-04-23 08:52 | 55.68989 | -3.18329 | 12236 ft | 285 kts | 303° |
| 2026-04-23 08:52 | 55.69763 | -3.21495 | 11979 ft | 278 kts | 278° |
| 2026-04-23 08:52 | 55.69731 | -3.24865 | 11677 ft | 273 kts | 254° |
| 2026-04-23 08:52 | 55.69175 | -3.28071 | 11331 ft | 272 kts | 250° |
| 2026-04-23 08:53 | 55.68592 | -3.31254 | 11010 ft | 271 kts | 250° |
| 2026-04-23 08:53 | 55.68009 | -3.34421 | 10696 ft | 270 kts | 250° |
| 2026-04-23 08:53 | 55.67430 | -3.37581 | 10407 ft | 268 kts | 249° |
| 2026-04-23 08:53 | 55.66858 | -3.40717 | 10059 ft | 267 kts | 250° |
| 2026-04-23 08:54 | 55.66289 | -3.43835 | 9700 ft | 265 kts | 249° |
| 2026-04-23 08:54 | 55.65722 | -3.46932 | 9344 ft | 264 kts | 249° |
| 2026-04-23 08:54 | 55.65158 | -3.50011 | 8988 ft | 263 kts | 250° |
| 2026-04-23 08:54 | 55.64861 | -3.53263 | 8290 ft | 277 kts | 269° |
| 2026-04-23 08:55 | 55.65282 | -3.56678 | 7540 ft | 294 kts | 292° |
| 2026-04-23 08:55 | 55.66486 | -3.59635 | 6746 ft | 301 kts | 315° |
| 2026-04-23 08:55 | 55.68029 | -3.62152 | 5931 ft | 302 kts | 317° |
| 2026-04-23 08:55 | 55.69573 | -3.64605 | 5529 ft | 289 kts | 318° |
| 2026-04-23 08:56 | 55.71070 | -3.66830 | 5291 ft | 272 kts | 320° |
| 2026-04-23 08:56 | 55.72472 | -3.68838 | 5139 ft | 253 kts | 320° |
| 2026-04-23 08:56 | 55.73809 | -3.70739 | 5027 ft | 235 kts | 320° |
| 2026-04-23 08:56 | 55.75040 | -3.72500 | 4898 ft | 226 kts | 320° |
| 2026-04-23 08:57 | 55.76220 | -3.74319 | 4785 ft | 225 kts | 317° |
| 2026-04-23 08:57 | 55.77536 | -3.75781 | 4665 ft | 224 kts | 339° |
| 2026-04-23 08:57 | 55.79052 | -3.76341 | 4556 ft | 222 kts | 0° |
| 2026-04-23 08:57 | 55.80567 | -3.75944 | 4432 ft | 219 kts | 20° |
| 2026-04-23 08:58 | 55.81891 | -3.74673 | 4319 ft | 215 kts | 41° |
| 2026-04-23 08:58 | 55.82872 | -3.72729 | 4250 ft | 206 kts | 60° |
| 2026-04-23 08:58 | 55.83603 | -3.70614 | 4086 ft | 196 kts | 61° |
| 2026-04-23 08:58 | 55.84302 | -3.68576 | 4005 ft | 192 kts | 62° |
| 2026-04-23 08:59 | 55.84993 | -3.66565 | 3804 ft | 189 kts | 62° |
| 2026-04-23 08:59 | 55.85675 | -3.64576 | 3577 ft | 188 kts | 61° |
| 2026-04-23 08:59 | 55.86354 | -3.62597 | 3315 ft | 187 kts | 60° |
| 2026-04-23 08:59 | 55.87030 | -3.60622 | 3068 ft | 186 kts | 60° |
| 2026-04-23 09:00 | 55.87700 | -3.58666 | 2819 ft | 183 kts | 60° |
| 2026-04-23 09:00 | 55.88344 | -3.56787 | 2566 ft | 171 kts | 61° |
| 2026-04-23 09:00 | 55.88945 | -3.55032 | 2338 ft | 162 kts | 60° |
| 2026-04-23 09:00 | 55.89516 | -3.53360 | 2121 ft | 152 kts | 60° |
| 2026-04-23 09:01 | 55.90034 | -3.51844 | 1916 ft | 136 kts | 62° |
| 2026-04-23 09:01 | 55.90506 | -3.50461 | 1729 ft | 128 kts | 60° |
| 2026-04-23 09:01 | 55.90962 | -3.49124 | 1562 ft | 126 kts | 60° |
| 2026-04-23 09:01 | 55.91412 | -3.47803 | 1391 ft | 124 kts | 60° |
| 2026-04-23 09:02 | 55.91857 | -3.46496 | 1215 ft | 123 kts | 61° |
| 2026-04-23 09:02 | 55.92293 | -3.45215 | 1032 ft | 121 kts | 60° |
| 2026-04-23 09:02 | 55.92739 | -3.43904 | 856 ft | 123 kts | 58° |
| 2026-04-23 09:02 | 55.93176 | -3.42617 | 672 ft | 124 kts | 59° |
| 2026-04-23 09:03 | 55.93619 | -3.41324 | 478 ft | 122 kts | 58° |
| 2026-04-23 09:03 | 55.94059 | -3.40028 | 320 ft | 121 kts | 58° |
| 2026-04-23 09:03 | 55.94496 | -3.38749 | 159 ft | 120 kts | 58° |
| 2026-04-23 09:03 | 55.94894 | -3.37580 | 113 ft | 87 kts | 59° |
| 2026-04-23 09:04 | 55.95054 | -3.37093 | 112 ft | 21 kts | 59° |
| 2026-04-23 09:04 | 55.95130 | -3.36864 | 112 ft | 23 kts | 60° |
| 2026-04-23 09:04 | 55.95224 | -3.36585 | 113 ft | 26 kts | 59° |
| 2026-04-23 09:04 | 55.95231 | -3.36392 | 112 ft | 16 kts | 141° |
| 2026-04-23 09:05 | 55.95148 | -3.36281 | 116 ft | 15 kts | 120° |
| 2026-04-23 09:05 | 55.95113 | -3.36105 | 115 ft | 16 kts | 108° |
| 2026-04-23 09:05 | 55.95068 | -3.35910 | 113 ft | 17 kts | 120° |
| 2026-04-23 09:05 | 55.94980 | -3.35873 | 113 ft | 16 kts | 233° |
| 2026-04-23 09:06 | 55.94956 | -3.36008 | 116 ft | 6 kts | 254° |
| 2026-04-23 09:06 | 55.94952 | -3.36033 | 113 ft | 0 kts | 255° |